createdAt,value
2022-11-21T00:01:36.427Z,5.35
2022-11-21T00:03:41.064Z,5.38
2022-11-21T00:05:47.741Z,5.39
2022-11-21T00:07:52.406Z,5.38
2022-11-21T00:09:57.036Z,5.39
2022-11-21T00:12:04.740Z,5.39
2022-11-21T00:14:09.370Z,5.37
2022-11-21T00:16:15.954Z,5.38
2022-11-21T00:18:20.528Z,5.39
2022-11-21T00:20:25.166Z,5.41
2022-11-21T00:22:30.736Z,5.40
2022-11-21T00:24:35.291Z,5.37
2022-11-21T00:26:40.257Z,5.37
2022-11-21T00:28:45.713Z,5.37
2022-11-21T00:30:50.373Z,5.38
2022-11-21T00:32:55.052Z,5.36
2022-11-21T00:34:59.666Z,5.37
2022-11-21T00:37:04.371Z,5.42
2022-11-21T00:39:09.068Z,5.44
2022-11-21T00:41:13.772Z,5.45
2022-11-21T00:43:18.439Z,5.45
2022-11-21T00:45:24.676Z,5.48
2022-11-21T00:47:29.547Z,5.51
2022-11-21T00:49:34.256Z,5.54
2022-11-21T00:51:39.003Z,5.54
2022-11-21T00:53:43.831Z,5.55
2022-11-21T00:55:48.418Z,5.54
2022-11-21T00:57:53.151Z,5.58
2022-11-21T00:59:57.790Z,5.60
2022-11-21T01:02:02.373Z,5.60
2022-11-21T01:04:07.232Z,5.63
2022-11-21T01:06:13.133Z,5.58
2022-11-21T01:08:17.724Z,5.56
2022-11-21T01:10:22.350Z,5.55
2022-11-21T01:12:27.071Z,5.55
2022-11-21T01:14:32.005Z,5.51
2022-11-21T01:16:36.703Z,5.46
2022-11-21T01:18:41.422Z,5.45
2022-11-21T01:20:46.142Z,5.42
2022-11-21T01:22:50.827Z,5.39
2022-11-21T01:24:55.431Z,5.39
2022-11-21T01:27:00.036Z,5.35
2022-11-21T01:29:04.885Z,5.31
2022-11-21T01:31:11.733Z,5.28
2022-11-21T01:33:16.394Z,5.22
2022-11-21T01:35:21.239Z,5.23
2022-11-21T01:37:25.927Z,5.24
2022-11-21T01:39:30.611Z,5.27
2022-11-21T01:41:37.391Z,5.29
2022-11-21T01:43:42.326Z,5.30
2022-11-21T01:45:55.965Z,5.26
2022-11-21T01:48:00.884Z,5.24
2022-11-21T01:50:11.773Z,5.22
2022-11-21T01:52:21.736Z,5.16
2022-11-21T01:54:30.202Z,5.14
2022-11-21T01:56:40.152Z,5.09
2022-11-21T01:58:48.001Z,5.06
2022-11-21T02:00:52.729Z,5.05
2022-11-21T02:03:02.114Z,5.04
2022-11-21T02:05:11.547Z,5.02
2022-11-21T02:07:20.048Z,5.01
2022-11-21T02:09:25.562Z,4.96
2022-11-21T02:11:35.272Z,4.94
2022-11-21T02:13:40.480Z,4.96
2022-11-21T02:15:45.245Z,4.96
2022-11-21T02:17:50.035Z,4.96
2022-11-21T02:19:57.740Z,4.94
2022-11-21T02:22:10.157Z,4.92
2022-11-21T02:24:22.046Z,4.95
2022-11-21T02:26:26.812Z,4.99
2022-11-21T02:28:31.992Z,5.00
2022-11-21T02:30:39.472Z,4.98
2022-11-21T02:32:46.162Z,4.94
2022-11-21T02:34:51.083Z,4.93
2022-11-21T02:36:55.987Z,4.96
2022-11-21T02:39:01.133Z,4.96
2022-11-21T02:41:12.939Z,4.95
2022-11-21T02:43:22.590Z,4.94
2022-11-21T02:45:32.077Z,4.94
2022-11-21T02:47:38.671Z,4.93
2022-11-21T02:49:50.840Z,4.88
2022-11-21T02:51:55.566Z,4.87
2022-11-21T02:54:00.285Z,4.85
2022-11-21T02:56:07.703Z,4.81
2022-11-21T02:58:13.512Z,4.81
2022-11-21T03:00:19.710Z,4.81
2022-11-21T03:02:24.340Z,4.82
2022-11-21T03:04:29.316Z,4.84
2022-11-21T15:38:40.724Z,8.03
2022-11-21T15:41:23.008Z,7.98
2022-11-21T15:43:39.769Z,7.96
2022-11-21T15:45:44.355Z,7.93
2022-11-21T15:47:49.260Z,7.90
2022-11-21T15:49:53.940Z,7.87
2022-11-21T15:54:23.565Z,7.81
2022-11-21T15:56:28.599Z,7.78
2022-11-21T15:57:15.122Z,7.82
2022-11-21T15:58:33.663Z,7.74
2022-11-21T16:00:38.281Z,7.71
2022-11-21T16:02:42.984Z,7.67
2022-11-21T16:04:47.662Z,7.65
2022-11-21T16:06:52.365Z,7.64
2022-11-21T16:08:57.045Z,7.63
2022-11-21T16:11:01.742Z,7.62
2022-11-21T16:13:07.001Z,7.61
2022-11-21T16:15:12.623Z,7.60
2022-11-21T16:17:17.259Z,7.58
2022-11-21T16:19:22.185Z,7.56
2022-11-21T16:21:27.276Z,7.52
2022-11-21T16:23:31.940Z,7.50
2022-11-21T16:25:36.580Z,7.47
2022-11-21T16:27:41.323Z,7.43
2022-11-21T16:29:47.012Z,7.40
2022-11-21T16:31:53.371Z,7.38
2022-11-21T16:33:59.354Z,7.34
2022-11-21T16:36:05.287Z,7.32
2022-11-21T16:38:11.660Z,7.29
2022-11-21T16:40:17.323Z,7.27
2022-11-21T16:42:22.446Z,7.25
2022-11-21T16:44:34.337Z,7.25
2022-11-21T16:46:47.145Z,7.24
2022-11-21T16:49:00.773Z,7.23
2022-11-21T16:51:13.021Z,7.21
2022-11-21T16:53:17.968Z,7.18
2022-11-21T16:55:22.645Z,7.17
2022-11-21T16:57:27.805Z,7.17
2022-11-21T16:59:34.536Z,7.16
2022-11-21T17:01:39.783Z,7.14
2022-11-21T17:03:47.374Z,7.14
2022-11-21T17:05:59.643Z,7.14
2022-11-21T17:08:04.795Z,7.16
2022-11-21T17:10:13.499Z,7.17
2022-11-21T17:12:19.245Z,7.17
2022-11-21T17:14:25.033Z,7.18
2022-11-21T17:16:31.432Z,7.17
2022-11-21T17:18:37.019Z,7.16
2022-11-21T17:20:42.673Z,7.13
2022-11-21T17:22:47.952Z,7.12
2022-11-21T17:24:56.568Z,7.11
2022-11-21T17:27:02.488Z,7.11
2022-11-21T17:29:07.767Z,7.11
2022-11-21T17:31:14.996Z,7.11
2022-11-21T17:33:20.708Z,7.11
2022-11-21T17:35:26.564Z,7.07
2022-11-21T17:37:31.932Z,7.04
2022-11-21T17:39:39.000Z,7.01
2022-11-21T17:41:45.349Z,6.99
2022-11-21T17:43:53.362Z,7.01
2022-11-21T17:46:09.054Z,6.99
2022-11-21T17:48:17.160Z,6.96
2022-11-21T17:50:22.689Z,6.91
2022-11-21T17:52:31.227Z,6.86
2022-11-21T17:54:37.134Z,6.87
2022-11-21T17:56:46.572Z,6.86
2022-11-21T17:58:55.609Z,6.82
2022-11-21T18:01:03.330Z,6.80
2022-11-21T18:03:10.865Z,6.75
2022-11-21T18:05:18.088Z,6.67
2022-11-21T18:07:24.790Z,6.58
2022-11-21T18:09:31.925Z,6.51
2022-11-21T18:11:40.324Z,6.38
2022-11-21T18:13:48.124Z,6.27
2022-11-21T18:15:54.326Z,6.19
2022-11-21T18:17:59.870Z,6.11
2022-11-21T18:20:08.462Z,6.03
2022-11-21T18:22:14.935Z,5.95
2022-11-21T18:24:21.175Z,5.84
2022-11-21T18:26:28.869Z,5.77
2022-11-21T18:28:34.680Z,5.68
2022-11-21T18:30:41.421Z,5.61
2022-11-21T18:32:50.539Z,5.52
2022-11-21T18:34:55.846Z,5.46
2022-11-21T18:37:03.829Z,5.40
2022-11-21T18:39:14.666Z,5.37
2022-11-21T18:41:24.971Z,5.34
2022-11-21T18:43:32.671Z,5.29
2022-11-21T18:45:44.214Z,5.22
2022-11-21T18:47:50.729Z,5.16
2022-11-21T18:49:56.316Z,5.12
2022-11-21T18:52:05.968Z,5.09
2022-11-21T18:54:19.799Z,5.06
2022-11-21T18:56:26.545Z,5.03
2022-11-21T18:58:35.541Z,5.00
2022-11-21T19:00:50.561Z,4.98
2022-11-21T19:02:59.151Z,4.96
2022-11-21T19:05:12.365Z,4.95
2022-11-21T19:07:23.494Z,4.96
2022-11-21T19:09:32.771Z,4.94
2022-11-21T19:11:39.566Z,4.93
2022-11-21T19:13:46.747Z,4.93
2022-11-21T19:15:58.355Z,4.93
2022-11-21T19:18:08.106Z,4.93
2022-11-21T19:20:14.496Z,4.93
2022-11-21T19:22:21.025Z,4.94
2022-11-21T19:24:27.419Z,4.94
2022-11-21T19:26:39.870Z,4.94
2022-11-21T19:28:46.610Z,4.94
2022-11-21T19:30:53.697Z,4.95
2022-11-21T19:33:00.031Z,4.96
2022-11-21T19:35:07.775Z,4.97
2022-11-21T19:37:17.839Z,5.00
2022-11-21T19:39:24.206Z,5.03
2022-11-21T19:41:30.668Z,5.04
2022-11-21T19:43:37.374Z,5.04
2022-11-21T19:45:42.794Z,5.05
2022-11-21T19:47:51.261Z,5.04
2022-11-21T19:49:57.658Z,5.02
2022-11-21T19:52:04.140Z,4.99
2022-11-21T19:54:12.654Z,4.95
2022-11-21T19:56:20.641Z,4.93
2022-11-21T19:58:26.984Z,4.91
2022-11-21T20:00:34.013Z,4.89
2022-11-21T20:02:40.406Z,4.88
2022-11-21T20:04:46.584Z,4.85
2022-11-21T20:06:53.034Z,4.82
2022-11-21T20:09:01.467Z,4.79
2022-11-21T20:11:12.889Z,4.75
2022-11-21T20:13:19.522Z,4.74
2022-11-21T20:15:26.083Z,4.73
2022-11-21T20:17:33.487Z,4.72
2022-11-21T20:19:44.260Z,4.74
2022-11-21T20:21:56.285Z,4.73
2022-11-21T20:24:03.201Z,4.73
2022-11-21T20:26:09.118Z,4.74
2022-11-21T20:28:14.618Z,4.75
2022-11-21T20:30:25.396Z,4.77
2022-11-21T20:32:32.998Z,4.81
2022-11-21T20:34:40.062Z,4.84
2022-11-21T20:36:47.757Z,4.86
2022-11-21T20:38:56.937Z,4.88
2022-11-21T20:41:03.543Z,4.90
2022-11-21T20:43:09.369Z,4.92
2022-11-21T20:47:44.338Z,4.93
2022-11-21T20:49:52.280Z,4.90
2022-11-21T20:54:26.874Z,4.85
2022-11-21T20:56:35.284Z,4.82
2022-11-21T20:58:43.212Z,4.79
2022-11-21T21:00:50.892Z,4.75
2022-11-21T21:02:57.238Z,4.73
2022-11-21T21:05:03.743Z,4.71
2022-11-21T21:07:09.100Z,4.71
2022-11-21T21:09:14.824Z,4.76
2022-11-21T21:11:49.752Z,4.78
2022-11-21T21:13:47.879Z,4.80
2022-11-21T21:15:53.419Z,4.82
2022-11-21T21:17:59.596Z,4.83
2022-11-21T21:20:05.509Z,4.83
2022-11-21T21:22:10.195Z,4.82
2022-11-21T21:24:17.116Z,4.77
2022-11-21T21:26:24.288Z,4.75
2022-11-21T21:28:28.920Z,4.71
2022-11-21T21:30:33.699Z,4.71
2022-11-21T21:32:38.400Z,4.70
2022-11-21T21:34:43.204Z,4.70
2022-11-21T21:36:48.383Z,4.68
2022-11-21T21:38:54.164Z,4.66
2022-11-21T21:40:58.858Z,4.65
2022-11-21T21:43:03.542Z,4.64
2022-11-21T21:45:09.789Z,4.63
2022-11-21T21:47:14.405Z,4.61
2022-11-21T21:49:19.055Z,4.59
2022-11-21T21:51:25.449Z,4.57
2022-11-21T21:53:30.298Z,4.52
2022-11-21T21:55:34.917Z,4.49
2022-11-21T21:57:44.977Z,4.48
2022-11-21T21:59:51.751Z,4.46
2022-11-21T22:01:56.548Z,4.44
2022-11-21T22:04:03.132Z,4.42
2022-11-21T22:06:09.685Z,4.39
2022-11-21T22:08:14.304Z,4.38
2022-11-21T22:10:18.888Z,4.35
2022-11-21T22:12:23.494Z,4.33
2022-11-21T22:14:28.317Z,4.28
2022-11-21T22:16:33.671Z,4.18
2022-11-21T22:18:38.595Z,4.11
2022-11-21T22:20:43.248Z,4.09
2022-11-21T22:22:47.851Z,4.04
2022-11-21T22:24:52.601Z,3.96
2022-11-21T22:26:57.265Z,3.94
2022-11-21T22:29:02.294Z,3.93
2022-11-21T22:31:07.259Z,3.94
2022-11-21T22:33:11.924Z,3.92
2022-11-21T22:35:16.543Z,3.92
2022-11-21T22:37:21.262Z,3.92
2022-11-21T22:39:27.010Z,3.90
2022-11-21T22:41:31.690Z,3.89
2022-11-21T22:43:36.483Z,3.93
2022-11-21T22:45:41.134Z,3.99
2022-11-21T22:47:48.088Z,4.04
2022-11-21T22:49:52.926Z,4.07
2022-11-21T22:51:57.576Z,4.11
2022-11-21T22:54:02.237Z,4.12
2022-11-21T22:56:10.225Z,4.15
2022-11-21T22:58:14.879Z,4.19
2022-11-21T23:00:20.618Z,4.20
2022-11-21T23:02:25.330Z,4.24
2022-11-21T23:04:30.015Z,4.24
2022-11-21T23:06:34.632Z,4.21
2022-11-21T23:08:39.937Z,4.19
2022-11-21T23:10:44.551Z,4.22
2022-11-21T23:12:49.495Z,4.22
2022-11-21T23:14:54.473Z,4.17
2022-11-21T23:16:59.087Z,4.12
2022-11-21T23:19:03.730Z,4.14
2022-11-21T23:21:09.403Z,4.17
2022-11-21T23:23:13.970Z,4.18
2022-11-21T23:25:18.572Z,4.19
2022-11-21T23:27:23.169Z,4.23
2022-11-21T23:29:28.025Z,4.27
2022-11-21T23:31:32.870Z,4.29
2022-11-21T23:33:37.499Z,4.34
2022-11-21T23:35:43.874Z,4.36
2022-11-21T23:37:48.482Z,4.43
2022-11-21T23:39:53.150Z,4.45
2022-11-21T23:41:57.761Z,4.46
2022-11-21T23:44:02.410Z,4.48
2022-11-21T23:46:07.049Z,4.49
2022-11-21T23:48:11.648Z,4.51
2022-11-21T23:50:16.928Z,4.50
2022-11-21T23:52:21.583Z,4.47
2022-11-21T23:54:26.207Z,4.48
2022-11-21T23:56:30.814Z,4.51
2022-11-21T23:58:35.458Z,4.48
